メインページ
METAR-TAF:

METAR-TAF

空港 :

バマコ・セヌー国際空港

バマコ, マリ共和国

緯度: 12-32N, 経度: 007-57W, 海抜: 380m

現時点の気象観測

当レポートは29分前の01:00(UTC)に作成
北東の風 5kt
気温 17°C
湿度 23%
気圧 1019 hPa
視程10km以上
1,500メートル以下は雲なし、積乱雲なし

METAR: GABS 210100Z 05005KT CAVOK 17/M04 Q1019 NOSIG

時間: 01:29 (01:29 UTC)

予報

当レポートは2時間29分前の23:00(UTC)に作成
予報は21日の 00時(UTC)から 22日の 06時(UTC)まで有効
北東の風 12kt
視程: 8000m
確率 40% :
21日の 06時(UTC)から 21日の 11時(UTC)まで一時的に
視程: 4000m
広範な塵

TAF: GABS 202300Z 2100/2206 04012KT 8000 NSC PROB40 TEMPO 2106/2111 4000 DU

4,000以上の空港の気象観測と天気予報(METAR報とTAF報)

利用可能な観測所は地図上に黄色い丸と赤い丸で示す。

丸の上にカーソルを重ねると観測所名を参照できる。

次にクリックすると気象観測と天気予報を参照できる。

マップの切り替え:黒色「×」印の緑ボタンをクリックして拡大、「-」印の緑ボタンをクリックして縮小、緑色の三角印をクリックして隣りの地図に切り替え


METAR-TAF: